createdAt,value
2018-05-06T00:04:08.317Z,15.40
2018-05-06T00:06:37.616Z,15.40
2018-05-06T00:09:05.917Z,15.40
2018-05-06T00:11:33.496Z,15.40
2018-05-06T00:14:01.597Z,15.40
2018-05-06T00:16:29.007Z,15.40
2018-05-06T00:18:59.347Z,15.40
2018-05-06T00:21:26.926Z,15.40
2018-05-06T00:23:54.447Z,15.30
2018-05-06T00:26:22.776Z,15.30
2018-05-06T00:28:50.226Z,15.30
2018-05-06T00:31:18.869Z,15.30
2018-05-06T00:33:46.872Z,15.40
2018-05-06T00:36:15.317Z,15.40
2018-05-06T00:38:44.449Z,15.40
2018-05-06T00:41:11.787Z,15.40
2018-05-06T00:43:39.297Z,15.40
2018-05-06T00:46:06.590Z,15.40
2018-05-06T00:48:48.947Z,15.40
2018-05-06T00:51:16.606Z,15.30
2018-05-06T00:53:44.266Z,15.30
2018-05-06T00:56:11.768Z,15.20
2018-05-06T00:58:40.076Z,15.20
2018-05-06T01:01:09.870Z,15.20
2018-05-06T01:03:37.286Z,15.20
2018-05-06T01:06:04.827Z,15.20
2018-05-06T01:08:32.647Z,15.10
2018-05-06T01:11:00.036Z,15.10
2018-05-06T01:13:27.277Z,15.10
2018-05-06T01:15:54.766Z,15.10
2018-05-06T01:18:29.397Z,15.00
2018-05-06T01:20:56.687Z,14.90
2018-05-06T01:23:24.207Z,14.90
2018-05-06T01:25:51.608Z,14.80
2018-05-06T01:28:20.856Z,14.80
2018-05-06T01:30:48.167Z,14.60
2018-05-06T01:33:15.596Z,14.60
2018-05-06T01:35:43.167Z,14.50
2018-05-06T01:38:10.608Z,14.50
2018-05-06T01:40:38.957Z,14.50
2018-05-06T01:43:07.846Z,14.40
2018-05-06T01:45:35.386Z,14.30
2018-05-06T01:48:02.797Z,14.40
2018-05-06T01:50:30.237Z,14.20
2018-05-06T01:52:57.687Z,14.10
2018-05-06T01:55:24.885Z,14.10
2018-05-06T01:57:52.526Z,14.10
2018-05-06T02:00:20.572Z,14.10
2018-05-06T02:02:48.058Z,14.10
2018-05-06T02:05:16.046Z,14.00
2018-05-06T02:07:45.607Z,14.00
2018-05-06T02:10:13.397Z,14.00
2018-05-06T02:12:40.917Z,13.90
2018-05-06T02:15:11.526Z,13.70
2018-05-06T02:17:39.697Z,13.50
2018-05-06T02:20:07.849Z,13.40
2018-05-06T02:22:36.106Z,13.30
2018-05-06T02:25:03.707Z,13.10
2018-05-06T02:27:32.997Z,13.00
2018-05-06T02:30:00.467Z,12.90
2018-05-06T02:32:28.376Z,12.90
2018-05-06T02:34:57.367Z,12.80
2018-05-06T02:37:24.907Z,12.70
2018-05-06T02:39:53.367Z,12.70
2018-05-06T02:42:23.017Z,12.60
2018-05-06T02:44:50.577Z,12.60
2018-05-06T02:47:17.997Z,12.60
2018-05-06T02:49:45.266Z,12.60
2018-05-06T02:52:12.597Z,12.60
2018-05-06T02:54:40.477Z,12.50
2018-05-06T02:57:07.832Z,12.40
2018-05-06T02:59:35.097Z,12.30
2018-05-06T03:02:02.687Z,12.30
2018-05-06T03:04:30.107Z,12.30
2018-05-06T03:06:58.377Z,12.40
2018-05-06T03:09:25.838Z,12.50
2018-05-06T03:11:53.719Z,12.60
2018-05-06T03:14:21.787Z,12.70
2018-05-06T03:16:50.239Z,12.80
2018-05-06T03:19:18.607Z,12.80
2018-05-06T03:21:46.098Z,12.90
2018-05-06T03:24:13.692Z,13.00
2018-05-06T03:26:40.927Z,13.00
2018-05-06T03:29:09.709Z,13.00
2018-05-06T03:31:38.028Z,12.90
2018-05-06T03:34:05.437Z,12.80
2018-05-06T03:36:33.467Z,12.70
2018-05-06T03:39:01.038Z,12.50
2018-05-06T03:41:28.567Z,12.40
2018-05-06T03:43:56.238Z,12.40
2018-05-06T03:46:23.477Z,12.50
2018-05-06T03:48:51.038Z,12.50
2018-05-06T03:51:18.617Z,12.60
2018-05-06T03:53:45.848Z,12.50
2018-05-06T03:59:56.818Z,12.40
2018-05-06T04:02:40.167Z,12.60
2018-05-06T04:05:07.526Z,13.30
2018-05-06T04:07:35.217Z,13.80
2018-05-06T04:10:02.761Z,14.40
2018-05-06T04:12:30.048Z,14.90
2018-05-06T04:14:57.436Z,15.40
2018-05-06T04:17:24.738Z,15.70
2018-05-06T04:19:53.056Z,16.00
2018-05-06T04:22:21.317Z,16.30
2018-05-06T04:24:49.716Z,16.50
2018-05-06T04:27:17.000Z,16.90
2018-05-06T04:29:44.508Z,17.20
2018-05-06T04:32:13.177Z,17.60
2018-05-06T04:34:40.447Z,18.00
2018-05-06T04:37:08.487Z,18.40
2018-05-06T04:39:36.777Z,18.50
2018-05-06T04:42:04.197Z,18.70
2018-05-06T04:44:33.657Z,19.00
2018-05-06T04:47:03.000Z,19.20
2018-05-06T04:49:30.739Z,19.60
2018-05-06T04:51:57.977Z,19.80
2018-05-06T04:54:25.447Z,19.80
2018-05-06T04:56:52.900Z,20.00
2018-05-06T04:59:21.918Z,19.90
2018-05-06T05:01:49.427Z,20.10
2018-05-06T05:04:16.718Z,20.00
2018-05-06T05:06:44.107Z,20.00
2018-05-06T05:09:11.526Z,20.20
2018-05-06T05:11:39.007Z,20.20
2018-05-06T05:14:06.327Z,20.30
2018-05-06T05:16:34.768Z,20.30
2018-05-06T05:19:02.068Z,20.10
2018-05-06T05:21:29.607Z,20.40
2018-05-06T05:23:57.847Z,20.30
2018-05-06T05:26:25.607Z,20.40
2018-05-06T05:28:52.938Z,20.40
2018-05-06T05:31:20.399Z,20.50
2018-05-06T05:33:48.058Z,20.60
2018-05-06T05:36:15.589Z,20.90
2018-05-06T05:38:44.417Z,20.90
2018-05-06T05:41:11.779Z,21.00
2018-05-06T05:43:39.367Z,20.90
2018-05-06T05:46:06.528Z,20.60
2018-05-06T05:48:34.707Z,20.50
2018-05-06T05:51:02.367Z,20.00
2018-05-06T05:53:30.677Z,19.30
2018-05-06T05:55:58.917Z,18.80
2018-05-06T05:58:27.490Z,18.20
2018-05-06T06:00:55.607Z,18.00
2018-05-06T06:03:22.957Z,17.70
2018-05-06T06:05:50.207Z,17.30
2018-05-06T06:08:17.918Z,17.20
2018-05-06T06:10:45.197Z,17.20
2018-05-06T06:13:14.227Z,17.10
2018-05-06T06:15:41.647Z,17.10
2018-05-06T06:18:09.927Z,17.20
2018-05-06T06:20:37.367Z,17.30
2018-05-06T06:23:06.428Z,17.40
2018-05-06T06:25:33.553Z,17.40
2018-05-06T06:28:01.018Z,17.50
2018-05-06T06:30:28.497Z,17.50
2018-05-06T06:32:55.645Z,17.60
2018-05-06T06:35:23.320Z,17.70
2018-05-06T06:37:50.789Z,17.80
2018-05-06T06:40:18.811Z,17.80
2018-05-06T06:42:46.270Z,17.90
2018-05-06T06:45:13.781Z,17.90
2018-05-06T06:47:41.989Z,17.90
2018-05-06T06:50:09.439Z,18.20
2018-05-06T06:52:36.862Z,18.20
2018-05-06T06:55:04.457Z,18.30
2018-05-06T06:57:32.129Z,18.40
2018-05-06T06:59:59.787Z,18.50
2018-05-06T07:02:27.307Z,18.40
2018-05-06T07:04:55.567Z,18.50
2018-05-06T07:07:23.017Z,18.50
2018-05-06T07:09:51.027Z,18.60
2018-05-06T07:12:18.684Z,18.70
2018-05-06T07:14:46.524Z,18.80
2018-05-06T07:17:14.730Z,18.80
2018-05-06T07:19:41.878Z,18.90
2018-05-06T07:22:09.351Z,18.90
2018-05-06T07:24:36.433Z,19.10
2018-05-06T07:27:03.553Z,19.30
2018-05-06T07:29:31.147Z,19.30
2018-05-06T07:31:58.969Z,19.40
2018-05-06T07:34:26.437Z,19.50
2018-05-06T07:36:53.677Z,19.70
2018-05-06T07:39:21.469Z,19.70
2018-05-06T07:41:48.927Z,19.70
2018-05-06T07:44:16.229Z,19.80
2018-05-06T07:46:43.777Z,19.80
2018-05-06T07:49:12.107Z,19.90
2018-05-06T07:51:39.627Z,19.80
2018-05-06T07:54:07.367Z,19.90
2018-05-06T07:56:34.907Z,20.00
2018-05-06T07:59:02.477Z,20.20
2018-05-06T08:01:30.077Z,20.30
2018-05-06T08:03:57.518Z,20.30
2018-05-06T08:06:25.738Z,20.40
2018-05-06T08:08:53.367Z,20.40
2018-05-06T08:11:20.828Z,20.60
2018-05-06T08:13:48.617Z,20.60
2018-05-06T08:16:16.180Z,20.80
2018-05-06T08:18:43.729Z,21.00
2018-05-06T08:21:11.358Z,21.00
2018-05-06T08:23:38.815Z,21.00
2018-05-06T08:26:06.552Z,21.20
2018-05-06T08:28:33.728Z,21.20
2018-05-06T08:31:01.348Z,21.10
2018-05-06T08:33:28.535Z,21.10
2018-05-06T08:35:56.107Z,21.10
2018-05-06T08:38:23.507Z,21.20
2018-05-06T08:40:51.438Z,21.40
2018-05-06T08:43:18.858Z,21.50
2018-05-06T08:45:46.293Z,21.50
2018-05-06T08:48:13.828Z,21.60
2018-05-06T08:50:41.718Z,21.90
2018-05-06T08:53:09.488Z,22.10
2018-05-06T08:55:36.788Z,22.20
2018-05-06T08:58:04.618Z,22.30
2018-05-06T09:00:31.978Z,22.30
2018-05-06T09:03:01.548Z,22.40
2018-05-06T09:05:29.667Z,22.40
2018-05-06T09:07:57.489Z,22.40
2018-05-06T09:10:24.977Z,22.50
2018-05-06T09:12:52.207Z,22.60
2018-05-06T09:15:20.038Z,22.90
2018-05-06T09:17:48.029Z,22.90
2018-05-06T09:20:15.467Z,23.00
2018-05-06T09:22:42.947Z,22.90
2018-05-06T09:25:10.148Z,22.90
2018-05-06T09:27:37.945Z,22.70
2018-05-06T09:30:05.757Z,22.90
2018-05-06T09:32:34.748Z,22.80
2018-05-06T09:35:02.608Z,22.80
2018-05-06T09:37:30.167Z,22.90
2018-05-06T09:39:58.807Z,22.90
2018-05-06T09:42:26.288Z,23.10
2018-05-06T09:44:53.748Z,23.20
2018-05-06T09:47:21.238Z,23.40
2018-05-06T09:49:49.479Z,23.70
2018-05-06T09:52:17.318Z,23.60
2018-05-06T09:54:44.828Z,23.50
2018-05-06T09:57:13.648Z,23.40
2018-05-06T09:59:41.417Z,23.40
2018-05-06T10:02:08.907Z,23.30
2018-05-06T10:04:36.898Z,23.00
2018-05-06T10:07:04.479Z,23.10
2018-05-06T10:09:32.118Z,23.30
2018-05-06T10:11:59.977Z,23.40
2018-05-06T10:14:27.443Z,23.40
2018-05-06T10:16:54.987Z,23.40
2018-05-06T10:19:23.172Z,23.60
2018-05-06T10:21:52.789Z,23.70
2018-05-06T10:24:21.517Z,23.50
2018-05-06T10:26:49.019Z,23.50
2018-05-06T10:29:16.488Z,23.60
2018-05-06T10:31:43.887Z,23.70
2018-05-06T10:34:11.687Z,23.80
2018-05-06T10:36:39.457Z,23.90
2018-05-06T10:39:08.628Z,24.20
2018-05-06T10:41:37.067Z,24.20
2018-05-06T10:44:05.573Z,24.20
2018-05-06T10:46:34.395Z,24.20
2018-05-06T10:49:04.092Z,24.10
2018-05-06T10:51:33.618Z,24.30
2018-05-06T10:54:01.419Z,24.40
2018-05-06T10:56:28.947Z,24.40
2018-05-06T10:58:56.317Z,24.30
2018-05-06T11:01:24.350Z,24.10
2018-05-06T11:03:53.110Z,23.80
2018-05-06T11:06:21.438Z,24.00
2018-05-06T11:08:52.287Z,23.90
2018-05-06T11:11:20.908Z,24.00
2018-05-06T11:13:48.587Z,24.10
2018-05-06T11:16:15.987Z,24.40
2018-05-06T11:18:43.691Z,24.60
2018-05-06T11:21:11.318Z,25.00
2018-05-06T11:23:39.547Z,25.00
2018-05-06T11:26:07.487Z,25.10
2018-05-06T11:28:36.047Z,25.20
2018-05-06T11:31:03.588Z,25.00
2018-05-06T11:33:32.237Z,24.90
2018-05-06T11:35:59.537Z,25.00
2018-05-06T11:38:26.987Z,24.90
2018-05-06T11:40:54.453Z,24.90
2018-05-06T11:43:22.206Z,24.80
2018-05-06T11:45:50.319Z,24.90
2018-05-06T11:48:17.817Z,24.90
2018-05-06T11:50:45.127Z,24.90
2018-05-06T11:53:12.857Z,25.10
2018-05-06T11:55:41.929Z,25.10
2018-05-06T11:58:10.007Z,25.20
2018-05-06T12:00:38.426Z,25.50
2018-05-06T12:03:06.146Z,25.30
2018-05-06T12:05:33.578Z,25.30
2018-05-06T12:08:01.910Z,25.30
2018-05-06T12:10:29.457Z,25.40
2018-05-06T12:12:56.878Z,25.40
2018-05-06T12:15:25.447Z,25.40
2018-05-06T12:17:53.161Z,25.50
2018-05-06T12:20:20.397Z,25.40
2018-05-06T12:22:49.947Z,25.40
2018-05-06T12:25:17.617Z,25.60
2018-05-06T12:27:46.746Z,25.50
2018-05-06T12:30:14.367Z,25.40
2018-05-06T12:32:41.917Z,25.50
2018-05-06T12:35:11.237Z,25.80
2018-05-06T12:37:38.519Z,25.90
2018-05-06T12:40:06.942Z,25.80
2018-05-06T12:42:34.672Z,25.90
2018-05-06T12:45:03.339Z,25.70
2018-05-06T12:47:31.648Z,25.60
2018-05-06T12:49:59.873Z,25.70
2018-05-06T12:52:27.781Z,25.90
2018-05-06T12:54:55.847Z,25.90
2018-05-06T12:57:24.184Z,26.00
2018-05-06T12:59:51.597Z,25.90
2018-05-06T13:02:19.951Z,25.60
2018-05-06T13:04:47.636Z,25.70
2018-05-06T13:07:15.919Z,25.50
2018-05-06T13:09:43.406Z,25.40
2018-05-06T13:12:11.236Z,25.60
2018-05-06T13:14:39.915Z,25.40
2018-05-06T13:17:08.256Z,25.70
2018-05-06T13:19:35.887Z,25.90
2018-05-06T13:22:03.397Z,25.80
2018-05-06T13:24:31.705Z,25.90
2018-05-06T13:26:59.277Z,25.90
2018-05-06T13:29:26.937Z,25.60
2018-05-06T13:31:54.612Z,25.80
2018-05-06T13:34:22.338Z,25.90
2018-05-06T13:36:50.506Z,26.00
2018-05-06T13:39:18.747Z,26.20
2018-05-06T13:41:46.238Z,25.80
2018-05-06T13:44:14.688Z,25.70
2018-05-06T13:46:42.127Z,25.80
2018-05-06T13:49:09.978Z,25.40
2018-05-06T13:51:37.477Z,25.60
2018-05-06T13:54:05.088Z,25.60
2018-05-06T13:56:32.528Z,25.70
2018-05-06T13:59:02.710Z,25.90
2018-05-06T14:01:30.123Z,25.30
2018-05-06T14:03:57.497Z,25.60
2018-05-06T14:06:24.897Z,25.60
2018-05-06T14:08:53.329Z,25.80
2018-05-06T14:11:21.057Z,26.10
2018-05-06T14:13:48.478Z,26.40
2018-05-06T14:16:16.708Z,26.60
2018-05-06T14:18:44.154Z,26.60
2018-05-06T14:21:11.739Z,26.60
2018-05-06T14:23:39.317Z,26.50
2018-05-06T14:26:06.907Z,26.40
2018-05-06T14:28:34.677Z,26.50
2018-05-06T14:31:02.877Z,26.80
2018-05-06T14:33:30.377Z,26.90
2018-05-06T14:35:57.869Z,26.90
2018-05-06T14:38:25.437Z,27.00
2018-05-06T14:40:52.907Z,27.00
2018-05-06T14:43:20.463Z,26.90
2018-05-06T14:45:47.952Z,26.90
2018-05-06T14:48:15.626Z,26.80
2018-05-06T14:50:43.267Z,26.60
2018-05-06T14:53:10.678Z,26.70
2018-05-06T14:55:38.351Z,26.70
2018-05-06T14:58:05.817Z,26.70
2018-05-06T15:00:33.727Z,26.80
2018-05-06T15:03:01.248Z,26.80
2018-05-06T15:05:28.877Z,26.70
2018-05-06T15:07:56.267Z,26.50
2018-05-06T15:10:23.870Z,26.40
2018-05-06T15:12:51.718Z,26.60
2018-05-06T15:15:19.597Z,26.80
2018-05-06T15:17:47.227Z,27.00
2018-05-06T15:20:14.887Z,26.90
2018-05-06T15:22:42.307Z,27.00
2018-05-06T15:25:09.860Z,27.00
2018-05-06T15:27:38.077Z,26.90
2018-05-06T15:30:05.937Z,26.80
2018-05-06T15:32:33.388Z,26.80
2018-05-06T15:35:00.816Z,26.80
2018-05-06T15:37:29.137Z,26.80
2018-05-06T15:39:56.537Z,26.60
2018-05-06T15:42:24.360Z,26.70
2018-05-06T15:44:51.898Z,26.70
2018-05-06T15:47:19.336Z,26.70
2018-05-06T15:49:46.840Z,26.70
2018-05-06T15:52:14.326Z,26.50
2018-05-06T15:54:42.717Z,26.30
2018-05-06T15:57:11.173Z,26.30
2018-05-06T15:59:38.607Z,26.40
2018-05-06T16:02:19.007Z,26.40
2018-05-06T16:04:47.307Z,26.30
2018-05-06T16:07:15.618Z,26.30
2018-05-06T16:09:42.827Z,26.40
2018-05-06T16:12:10.317Z,26.50
2018-05-06T16:14:37.767Z,26.70
2018-05-06T16:17:04.844Z,26.60
2018-05-06T16:19:32.415Z,26.40
2018-05-06T16:21:59.887Z,26.30
2018-05-06T16:24:28.337Z,26.40
2018-05-06T16:26:55.874Z,26.20
2018-05-06T16:29:23.427Z,26.00
2018-05-06T16:31:50.999Z,25.90
2018-05-06T16:34:18.152Z,26.00
2018-05-06T16:36:45.899Z,26.00
2018-05-06T16:39:13.537Z,26.00
2018-05-06T16:41:41.098Z,26.00
2018-05-06T16:44:08.719Z,25.90
2018-05-06T16:46:36.417Z,25.80
2018-05-06T16:49:04.130Z,25.70
2018-05-06T16:51:31.818Z,25.80
2018-05-06T16:53:59.387Z,25.90
2018-05-06T16:56:27.748Z,25.80
2018-05-06T16:58:55.268Z,25.80
2018-05-06T17:01:23.023Z,25.80
2018-05-06T17:03:50.779Z,25.80
2018-05-06T17:06:18.707Z,25.80
2018-05-06T17:08:47.207Z,25.90
2018-05-06T17:11:15.789Z,26.10
2018-05-06T17:13:44.048Z,26.30
2018-05-06T17:16:15.257Z,26.30
2018-05-06T17:18:43.735Z,26.30
2018-05-06T17:23:52.370Z,26.40
2018-05-06T17:26:21.067Z,26.20
2018-05-06T17:28:48.645Z,26.00
2018-05-06T17:31:17.076Z,26.10
2018-05-06T17:33:44.506Z,26.10
2018-05-06T17:36:13.326Z,26.00
2018-05-06T17:38:40.935Z,26.00
2018-05-06T17:41:08.726Z,26.00
2018-05-06T17:43:36.126Z,25.90
2018-05-06T17:46:03.816Z,25.70
2018-05-06T17:48:31.477Z,25.60
2018-05-06T17:50:59.046Z,25.40
2018-05-06T17:53:27.386Z,25.30
2018-05-06T17:55:55.127Z,25.00
2018-05-06T17:58:22.676Z,24.70
2018-05-06T18:00:50.295Z,24.30
2018-05-06T18:03:18.278Z,24.00
2018-05-06T18:05:46.525Z,23.60
2018-05-06T18:08:14.185Z,23.40
2018-05-06T18:10:41.655Z,23.10
2018-05-06T18:13:09.226Z,22.80
2018-05-06T18:15:37.665Z,22.50
2018-05-06T18:18:05.265Z,22.30
2018-05-06T18:20:33.736Z,21.70
2018-05-06T18:23:03.365Z,21.40
2018-05-06T18:25:32.316Z,21.20
2018-05-06T18:28:00.505Z,21.00
2018-05-06T18:30:30.347Z,20.90
2018-05-06T18:32:57.915Z,20.70
2018-05-06T18:35:25.625Z,20.70
2018-05-06T18:40:28.176Z,20.40
2018-05-06T18:42:55.889Z,20.30
2018-05-06T18:45:24.065Z,20.40
2018-05-06T18:47:51.825Z,20.40
2018-05-06T18:50:23.346Z,20.50
2018-05-06T18:52:51.286Z,20.50
2018-05-06T18:55:18.895Z,20.50
2018-05-06T18:57:47.976Z,20.50
2018-05-06T19:00:16.086Z,20.50
2018-05-06T19:02:44.172Z,20.50
2018-05-06T19:05:12.166Z,20.50
2018-05-06T19:07:39.566Z,20.40
2018-05-06T19:10:09.325Z,20.50
2018-05-06T19:12:39.425Z,20.50
2018-05-06T19:15:09.636Z,20.40
2018-05-06T19:17:38.937Z,20.30
2018-05-06T19:20:09.806Z,20.30
2018-05-06T19:22:38.717Z,20.30
2018-05-06T19:25:10.536Z,20.20
2018-05-06T19:27:37.876Z,20.10
2018-05-06T19:30:06.008Z,20.10
2018-05-06T19:32:33.607Z,20.00
2018-05-06T19:35:06.890Z,20.00
2018-05-06T19:37:37.965Z,19.90
2018-05-06T19:42:51.016Z,19.80
2018-05-06T19:45:20.627Z,19.70
2018-05-06T19:47:48.616Z,19.80
2018-05-06T19:50:16.116Z,19.70
2018-05-06T19:52:48.895Z,19.60
2018-05-06T19:55:19.120Z,19.60
2018-05-06T19:57:48.176Z,19.50
2018-05-06T20:00:15.526Z,19.50
2018-05-06T20:02:44.149Z,19.40
2018-05-06T20:05:12.696Z,19.30
2018-05-06T20:07:42.185Z,19.30
2018-05-06T20:10:13.066Z,19.20
2018-05-06T20:12:40.440Z,19.10
2018-05-06T20:15:13.116Z,19.00
2018-05-06T20:17:41.389Z,18.90
2018-05-06T20:20:09.636Z,19.00
2018-05-06T20:22:38.088Z,18.90
2018-05-06T20:25:07.088Z,18.90
2018-05-06T20:27:34.598Z,18.80
2018-05-06T20:30:02.286Z,18.80
2018-05-06T20:32:31.286Z,18.80
2018-05-06T20:34:58.755Z,18.70
2018-05-06T20:37:29.645Z,18.70
2018-05-06T20:39:57.405Z,18.60
2018-05-06T20:42:27.185Z,18.50
2018-05-06T20:44:57.226Z,18.50
2018-05-06T20:47:27.815Z,18.40
2018-05-06T20:49:56.817Z,18.30
2018-05-06T20:52:24.685Z,18.30
2018-05-06T20:54:52.976Z,18.10
2018-05-06T20:57:23.515Z,18.10
2018-05-06T20:59:52.595Z,18.10
2018-05-06T21:02:22.596Z,18.00
2018-05-06T21:04:50.365Z,17.90
2018-05-06T21:07:19.245Z,17.80
2018-05-06T21:09:47.946Z,17.70
2018-05-06T21:12:15.676Z,17.60
2018-05-06T21:14:43.218Z,17.50
2018-05-06T21:17:11.025Z,17.40
2018-05-06T21:19:39.795Z,17.20
2018-05-06T21:22:09.216Z,17.20
2018-05-06T21:24:40.185Z,17.10
2018-05-06T21:27:09.806Z,17.00
2018-05-06T21:29:37.380Z,17.00
2018-05-06T21:32:05.570Z,17.00
2018-05-06T21:34:35.296Z,17.00
2018-05-06T21:37:03.320Z,17.00
2018-05-06T21:39:33.646Z,16.80
2018-05-06T21:42:01.927Z,16.80
2018-05-06T21:44:29.486Z,16.80
2018-05-06T21:46:57.635Z,16.70
2018-05-06T21:49:25.398Z,16.70
2018-05-06T21:51:54.047Z,16.70
2018-05-06T21:54:22.618Z,16.60
2018-05-06T21:56:50.176Z,16.60
2018-05-06T21:59:17.726Z,16.60
2018-05-06T22:01:45.159Z,16.50
2018-05-06T22:04:13.078Z,16.50
2018-05-06T22:06:40.868Z,16.40
2018-05-06T22:09:08.406Z,16.30
2018-05-06T22:11:35.885Z,16.30
2018-05-06T22:14:03.615Z,16.20
2018-05-06T22:16:31.465Z,16.20
2018-05-06T22:19:01.450Z,16.20
2018-05-06T22:21:29.836Z,16.10
2018-05-06T22:23:58.895Z,16.20
2018-05-06T22:26:27.126Z,16.20
2018-05-06T22:28:54.606Z,16.10
2018-05-06T22:31:22.086Z,16.10
2018-05-06T22:33:49.616Z,16.10
2018-05-06T22:36:18.696Z,16.10
2018-05-06T22:38:46.335Z,16.00
2018-05-06T22:41:14.985Z,16.00
2018-05-06T22:43:42.426Z,16.00
2018-05-06T22:46:10.176Z,16.10
2018-05-06T22:48:37.575Z,16.10
2018-05-06T22:51:05.669Z,16.10
2018-05-06T22:53:33.216Z,16.10
2018-05-06T22:56:00.704Z,16.10
2018-05-06T22:58:28.315Z,16.00
2018-05-06T23:00:57.585Z,15.90
2018-05-06T23:03:25.275Z,15.90
2018-05-06T23:05:53.074Z,15.90
2018-05-06T23:08:20.535Z,15.80
2018-05-06T23:10:48.555Z,15.70
2018-05-06T23:13:17.716Z,15.60
2018-05-06T23:15:48.368Z,15.50
2018-05-06T23:18:18.595Z,15.50
2018-05-06T23:20:48.318Z,15.40
2018-05-06T23:23:21.695Z,15.40
2018-05-06T23:25:51.274Z,15.30
2018-05-06T23:28:19.075Z,15.30
2018-05-06T23:30:46.546Z,15.30
2018-05-06T23:33:14.225Z,15.30
2018-05-06T23:35:41.645Z,15.30
2018-05-06T23:38:09.016Z,15.20
2018-05-06T23:40:36.568Z,15.20
2018-05-06T23:43:06.215Z,15.20
2018-05-06T23:45:36.915Z,15.30
2018-05-06T23:48:06.516Z,15.30
2018-05-06T23:50:35.458Z,15.30
2018-05-06T23:53:03.605Z,15.40
2018-05-06T23:55:37.755Z,15.30
2018-05-06T23:58:05.725Z,15.30
